Terminal Aerodrome Forecast
Issued by NWS

Home | Current Version | Previous Version | Graphics & Text | Print | Product List | Glossary On
Versions: 1 2 3 4 5 6 7 8 9 10 11 12 13 14 15 16 17 18 19 20 21 22 23 24 25 26 27
000
FTUS43 KMPX 010500 RRA
TAFAXN
TAF
KAXN 010540Z 0106/0206 13014KT P6SM SCT050 BKN080
     FM010700 13015KT P6SM OVC015
     FM011000 15012KT 4SM BR OVC008
     FM011600 20011KT P6SM OVC015
     FM012000 21008KT P6SM SCT030 BKN100
     FM020000 27007KT P6SM SCT020 BKN080=

USA.gov is the U.S. government's official web portal to all federal, state and local government web resources and services.